Time;durP1;ratioP1;P1;durP2;ratioP2;P2;SDS_P1;SDS_P2;PMS_P1;PMS_P2;Temp;Humidity;BMP_temperature;BMP_pressure;BME280_temperature;BME280_humidity;BME280_pressure;Samples;Min_cycle;Max_cycle;Signal;HPM_P1;HPM_P2
2022/07/18 00:00:15;;;;;;;9.30;1.92;;;;;;;19.51;41.47;101185.75;4932677;28;20047;-71
2022/07/18 00:02:42;;;;;;;2.85;1.50;;;;;;;19.37;41.77;101158.97;4929901;28;20429;-72
2022/07/18 00:05:10;;;;;;;3.58;1.45;;;;;;;19.45;41.37;101164.66;4929590;28;20410;-71
2022/07/18 00:07:37;;;;;;;5.30;1.58;;;;;;;19.55;41.39;101187.25;4931138;28;20087;-71
2022/07/18 00:10:04;;;;;;;4.35;1.40;;;;;;;19.49;41.15;101172.44;4928295;28;20047;-71
2022/07/18 00:12:31;;;;;;;3.80;1.55;;;;;;;19.52;41.27;101182.94;4930199;28;20051;-73
2022/07/18 00:14:58;;;;;;;3.75;1.25;;;;;;;19.36;41.17;101163.47;4929012;28;20052;-71
2022/07/18 00:17:24;;;;;;;4.82;1.40;;;;;;;19.44;41.02;101174.56;4930606;28;20445;-71
2022/07/18 00:19:52;;;;;;;2.72;1.52;;;;;;;19.47;41.15;101187.78;4927552;28;20051;-72
2022/07/18 00:22:19;;;;;;;5.03;1.58;;;;;;;19.44;41.53;101187.97;4930570;28;20160;-71
2022/07/18 00:24:45;;;;;;;3.60;1.23;;;;;;;19.41;41.24;101180.13;4929171;28;20047;-71
2022/07/18 00:27:12;;;;;;;6.20;1.45;;;;;;;19.33;41.52;101176.28;4934542;28;20674;-71
2022/07/18 00:29:39;;;;;;;4.85;1.48;;;;;;;19.35;41.79;101190.47;4929734;28;20492;-70
2022/07/18 00:32:08;;;;;;;4.50;1.50;;;;;;;19.32;41.76;101182.63;4932045;28;20051;-71
2022/07/18 00:34:35;;;;;;;4.53;1.50;;;;;;;19.28;41.86;101176.59;4929512;28;20500;-70
2022/07/18 00:37:03;;;;;;;4.05;1.40;;;;;;;19.23;41.77;101179.63;4930861;28;20055;-72
2022/07/18 00:39:30;;;;;;;5.53;2.05;;;;;;;19.18;41.77;101173.72;4927113;28;20563;-72
2022/07/18 00:41:57;;;;;;;9.90;1.67;;;;;;;19.04;41.95;101160.41;4929125;28;20531;-72
2022/07/18 00:44:25;;;;;;;1.92;1.23;;;;;;;19.14;42.07;101174.91;4928068;29;20095;-72
2022/07/18 00:46:54;;;;;;;3.10;1.40;;;;;;;19.07;42.19;101170.06;4931029;28;20682;-71
2022/07/18 00:49:21;;;;;;;3.17;1.17;;;;;;;19.07;42.32;101173.59;4929535;28;20060;-70
2022/07/18 00:51:47;;;;;;;3.47;1.70;;;;;;;18.96;42.18;101159.22;4928047;28;20626;-71
2022/07/18 00:54:14;;;;;;;4.13;1.17;;;;;;;19.01;42.14;101171.38;4929447;28;20488;-71
2022/07/18 00:56:41;;;;;;;2.55;1.20;;;;;;;18.98;42.59;101181.44;4927017;28;20052;-71
2022/07/18 00:59:10;;;;;;;6.18;1.50;;;;;;;18.96;42.61;101172.66;4928785;28;20566;-71
2022/07/18 01:01:43;;;;;;;4.55;1.25;;;;;;;18.88;42.57;101165.13;4929511;28;20459;-70
2022/07/18 01:04:12;;;;;;;4.05;1.50;;;;;;;18.72;42.92;101143.00;4927620;28;20139;-71
2022/07/18 01:06:39;;;;;;;4.53;1.50;;;;;;;18.78;42.92;101166.72;4928977;28;20043;-71
2022/07/18 01:09:06;;;;;;;2.63;1.23;;;;;;;18.77;42.93;101171.22;4926954;28;20051;-71
2022/07/18 01:11:34;;;;;;;2.03;1.20;;;;;;;18.76;42.61;101168.66;4932916;28;20058;-70
2022/07/18 01:14:05;;;;;;;3.15;1.33;;;;;;;18.75;42.81;101169.59;4932130;28;20118;-71
2022/07/18 01:16:39;;;;;;;3.55;1.48;;;;;;;18.72;43.03;101164.47;5045195;28;20629;-71
2022/07/18 01:19:05;;;;;;;2.80;1.50;;;;;;;18.79;42.77;101171.13;5047628;28;20041;-73
2022/07/18 01:21:32;;;;;;;3.13;1.08;;;;;;;18.79;42.98;101171.13;5047541;28;20800;-71
2022/07/18 01:23:59;;;;;;;3.08;1.20;;;;;;;18.69;42.76;101170.03;5043906;28;20154;-71
2022/07/18 01:26:26;;;;;;;1.90;1.30;;;;;;;18.72;42.95;101183.25;5042303;28;20588;-71
2022/07/18 01:28:53;;;;;;;5.75;1.50;;;;;;;18.72;42.66;101176.06;5045824;28;20086;-71
2022/07/18 01:31:20;;;;;;;4.18;1.40;;;;;;;18.69;42.29;101173.59;5051512;28;20454;-71
2022/07/18 01:33:46;;;;;;;3.33;1.40;;;;;;;18.72;42.75;101178.75;5049381;28;20045;-71
2022/07/18 01:36:13;;;;;;;2.45;1.52;;;;;;;18.68;42.73;101177.22;5042327;28;20068;-71
2022/07/18 01:38:40;;;;;;;4.03;1.20;;;;;;;18.67;42.41;101180.03;5039437;28;20094;-71
2022/07/18 01:41:06;;;;;;;1.50;1.17;;;;;;;18.60;42.70;101179.56;5044471;28;20047;-71
2022/07/18 01:43:34;;;;;;;3.42;1.30;;;;;;;18.54;42.77;101178.16;5046970;28;20083;-71
2022/07/18 01:46:01;;;;;;;5.70;1.52;;;;;;;18.50;43.15;101182.00;5042592;28;20485;-71
2022/07/18 01:48:28;;;;;;;5.70;1.48;;;;;;;18.48;43.26;101180.38;5049270;28;20161;-72
2022/07/18 01:50:54;;;;;;;2.80;1.35;;;;;;;18.47;43.46;101173.28;5054615;28;20582;-71
2022/07/18 01:53:21;;;;;;;3.42;1.20;;;;;;;18.34;43.41;101153.63;5046179;28;20052;-72
2022/07/18 01:55:48;;;;;;;1.95;1.23;;;;;;;18.50;43.22;101182.00;5040793;28;20304;-72
2022/07/18 01:58:14;;;;;;;3.58;1.27;;;;;;;18.47;43.31;101176.81;5043171;28;20115;-72
2022/07/18 02:00:41;;;;;;;2.47;1.52;;;;;;;18.44;43.34;101168.97;5049572;28;20052;-72
2022/07/18 02:03:08;;;;;;;2.53;1.33;;;;;;;18.44;43.56;101176.16;5054288;28;20566;-72
2022/07/18 02:05:35;;;;;;;2.60;1.50;;;;;;;18.42;43.56;101176.28;5041587;28;20140;-73
2022/07/18 02:08:01;;;;;;;1.83;1.20;;;;;;;18.38;43.92;101181.97;5040409;28;20049;-71
2022/07/18 02:10:28;;;;;;;2.80;0.98;;;;;;;18.32;43.69;101179.69;5071726;28;20464;-71
2022/07/18 02:12:55;;;;;;;3.90;1.35;;;;;;;18.15;44.03;101162.03;5040959;28;20041;-72
2022/07/18 02:15:22;;;;;;;3.28;1.10;;;;;;;18.29;44.01;101175.38;5041202;28;20053;-72
2022/07/18 02:17:48;;;;;;;2.38;1.02;;;;;;;18.15;43.95;101140.59;5041851;28;20037;-71
2022/07/18 02:20:16;;;;;;;3.17;1.25;;;;;;;18.26;43.94;101175.56;5039650;28;20132;-71
2022/07/18 02:22:43;;;;;;;3.47;1.30;;;;;;;18.06;44.04;101144.75;5041213;28;20104;-72
2022/07/18 02:25:10;;;;;;;4.10;1.15;;;;;;;18.18;44.22;101169.88;5039282;28;20056;-71
2022/07/18 02:27:37;;;;;;;3.88;1.20;;;;;;;18.11;44.39;101169.41;5030586;28;20083;-70
2022/07/18 02:30:05;;;;;;;4.40;1.10;;;;;;;18.04;44.55;101164.56;5028153;28;20135;-70
2022/07/18 02:32:32;;;;;;;3.08;1.27;;;;;;;18.00;44.60;101160.38;5030530;28;20127;-72
2022/07/18 02:34:59;;;;;;;3.05;1.38;;;;;;;18.03;44.92;101168.22;5027084;28;20130;-72
2022/07/18 02:37:26;;;;;;;3.10;1.35;;;;;;;18.01;45.07;101165.63;5026760;28;20057;-71
2022/07/18 02:39:52;;;;;;;3.25;1.10;;;;;;;17.94;45.30;101158.97;5025226;28;20100;-72
2022/07/18 02:42:19;;;;;;;4.13;1.25;;;;;;;17.74;45.22;101138.81;5023275;28;20559;-71
2022/07/18 02:44:45;;;;;;;4.63;1.40;;;;;;;17.82;45.65;101168.63;5025890;28;20100;-71
2022/07/18 02:47:12;;;;;;;3.10;1.63;;;;;;;17.81;45.44;101166.06;5028041;28;20115;-70
2022/07/18 02:49:39;;;;;;;2.63;1.13;;;;;;;17.75;45.94;101159.31;5033595;28;20046;-70
2022/07/18 02:52:08;;;;;;;4.25;1.25;;;;;;;17.71;45.91;101157.75;5027183;28;20108;-71
2022/07/18 02:54:36;;;;;;;4.03;1.13;;;;;;;17.68;45.86;101159.78;5029491;28;20053;-73
2022/07/18 02:57:03;;;;;;;2.38;1.30;;;;;;;17.68;45.76;101160.63;5027185;28;20099;-71
2022/07/18 02:59:30;;;;;;;4.65;1.27;;;;;;;17.64;46.30;101168.97;5027512;28;20418;-73
2022/07/18 03:01:57;;;;;;;3.30;1.30;;;;;;;17.54;46.45;101164.16;5027699;28;20049;-71
2022/07/18 03:04:23;;;;;;;3.75;1.58;;;;;;;17.32;46.86;101144.19;5023415;28;20045;-73
2022/07/18 03:06:50;;;;;;;3.05;1.20;;;;;;;17.28;47.06;101151.59;5027932;28;20449;-73
2022/07/18 03:09:18;;;;;;;4.65;1.30;;;;;;;17.33;46.67;101173.56;5023647;28;20510;-70
2022/07/18 03:11:45;;;;;;;4.78;1.80;;;;;;;17.32;47.42;101182.53;5028502;28;20052;-73
2022/07/18 03:14:12;;;;;;;4.03;1.30;;;;;;;17.25;47.29;101177.69;5027581;28;20498;-73
2022/07/18 03:16:39;;;;;;;2.97;1.25;;;;;;;17.23;47.36;101175.09;5035098;28;20489;-72
2022/07/18 03:19:06;;;;;;;6.60;1.38;;;;;;;17.23;47.45;101175.09;5027616;28;20049;-70
2022/07/18 03:21:33;;;;;;;2.90;1.27;;;;;;;17.19;47.78;101160.16;5028535;28;20112;-71
2022/07/18 03:24:01;;;;;;;3.95;1.40;;;;;;;17.23;47.32;101169.75;5033113;28;20108;-71
2022/07/18 03:26:28;;;;;;;2.92;1.38;;;;;;;17.22;47.72;101168.00;5028691;28;20084;-71
2022/07/18 03:28:55;;;;;;;3.90;1.30;;;;;;;17.15;47.39;101164.88;5033661;28;20128;-73
2022/07/18 03:31:22;;;;;;;7.28;1.52;;;;;;;17.19;47.46;101174.41;5028513;28;20143;-72
2022/07/18 03:33:48;;;;;;;5.00;1.30;;;;;;;17.21;47.48;101181.50;5026393;28;20053;-71
2022/07/18 03:36:15;;;;;;;6.55;1.42;;;;;;;17.23;47.79;101171.56;5034166;28;20084;-71
2022/07/18 03:38:42;;;;;;;3.25;1.10;;;;;;;17.19;47.91;101177.09;5025939;28;20098;-72
2022/07/18 03:41:10;;;;;;;2.33;1.30;;;;;;;17.17;47.33;101175.47;5031711;28;20096;-72
2022/07/18 03:43:38;;;;;;;4.03;1.27;;;;;;;17.06;47.80;101157.41;5031390;28;20048;-72
2022/07/18 03:46:05;;;;;;;2.78;1.27;;;;;;;17.22;47.65;101175.19;5030603;28;20041;-71
2022/07/18 03:48:32;;;;;;;2.25;1.27;;;;;;;17.26;48.06;101184.75;5027932;28;20053;-72
2022/07/18 03:50:59;;;;;;;3.47;1.30;;;;;;;17.31;47.76;101185.34;5035256;28;20049;-72
2022/07/18 03:53:26;;;;;;;1.83;1.25;;;;;;;17.32;47.51;101189.72;5024695;28;20103;-71
2022/07/18 03:55:53;;;;;;;2.42;1.15;;;;;;;17.18;47.59;101151.28;5026786;28;20044;-72
2022/07/18 03:58:19;;;;;;;4.32;1.42;;;;;;;17.36;47.67;101175.19;5023772;28;20050;-72
2022/07/18 04:00:46;;;;;;;4.63;1.48;;;;;;;17.23;47.40;101144.78;5016228;28;20068;-72
2022/07/18 04:03:13;;;;;;;3.38;1.48;;;;;;;17.36;47.78;101176.03;5023205;28;20037;-72
2022/07/18 04:05:40;;;;;;;6.05;1.40;;;;;;;17.38;47.65;101182.16;5023790;28;20160;-71
2022/07/18 04:08:06;;;;;;;4.35;1.52;;;;;;;17.34;47.78;101177.09;5021890;28;20068;-72
2022/07/18 04:10:33;;;;;;;4.20;1.48;;;;;;;17.34;47.95;101179.75;5030887;28;20052;-72
2022/07/18 04:13:00;;;;;;;4.32;1.60;;;;;;;17.27;47.71;101176.63;5029446;28;20087;-71
2022/07/18 04:15:26;;;;;;;3.33;1.40;;;;;;;17.24;47.86;101178.63;5012394;28;20065;-73
2022/07/18 04:17:53;;;;;;;4.03;1.27;;;;;;;17.23;47.76;101190.28;5016169;28;20706;-71
2022/07/18 04:20:21;;;;;;;4.03;1.33;;;;;;;17.05;47.94;101154.81;5006143;28;20080;-71
2022/07/18 04:22:56;;;;;;;3.95;1.50;;;;;;;17.11;48.23;101175.84;5010119;28;20405;-72
2022/07/18 04:25:25;;;;;;;3.30;1.27;;;;;;;17.07;48.26;101171.66;5007151;28;20136;-70
2022/07/18 04:27:53;;;;;;;3.60;1.33;;;;;;;17.12;48.77;101183.78;5003792;28;20500;-71
2022/07/18 04:30:23;;;;;;;4.13;1.60;;;;;;;17.08;48.48;101170.69;5004235;28;20077;-70
2022/07/18 04:32:51;;;;;;;3.15;1.45;;;;;;;16.99;48.47;101153.41;5004564;28;22595;-72
2022/07/18 04:35:20;;;;;;;4.00;1.48;;;;;;;17.21;48.57;101181.50;5004904;28;20085;-70
2022/07/18 04:37:46;;;;;;;7.55;1.50;;;;;;;17.24;48.83;101179.50;5006577;28;20049;-71
2022/07/18 04:40:15;;;;;;;3.03;1.35;;;;;;;17.35;48.45;101176.13;5008852;28;20452;-72
2022/07/18 04:42:42;;;;;;;4.03;1.27;;;;;;;17.29;48.33;101157.81;5008019;28;20049;-71
2022/07/18 04:45:10;;;;;;;2.70;1.25;;;;;;;17.47;48.47;101180.75;5007221;28;20092;-71
2022/07/18 04:47:36;;;;;;;3.65;1.20;;;;;;;17.50;48.59;101177.84;5009023;28;20112;-73
2022/07/18 04:50:04;;;;;;;3.08;1.60;;;;;;;17.37;48.37;101159.03;5007207;28;20057;-72
2022/07/18 04:52:44;;;;;;;2.63;1.40;;;;;;;17.48;48.67;101185.09;5005852;28;20045;-73
2022/07/18 04:55:14;;;;;;;3.70;1.27;;;;;;;17.52;48.49;101192.00;5009812;28;20049;-71
2022/07/18 04:57:42;;;;;;;11.43;4.05;;;;;;;17.51;48.38;101183.09;5011174;28;20144;-73
2022/07/18 05:00:15;;;;;;;2.80;1.20;;;;;;;17.39;48.65;101162.47;5021251;28;20052;-73
2022/07/18 05:02:43;;;;;;;4.80;1.52;;;;;;;17.42;48.64;101172.13;5014498;28;20069;-72
2022/07/18 05:05:12;;;;;;;3.22;1.50;;;;;;;17.49;48.67;101186.84;5011892;28;20069;-73
2022/07/18 05:07:40;;;;;;;2.35;1.25;;;;;;;17.47;48.23;101184.25;5010730;28;20065;-71
2022/07/18 05:10:09;;;;;;;3.88;1.45;;;;;;;17.52;48.38;101183.97;5009555;28;20049;-72
2022/07/18 05:12:37;;;;;;;3.13;1.60;;;;;;;17.58;48.29;101191.63;5010842;28;20057;-70
2022/07/18 05:15:09;;;;;;;1.80;1.27;;;;;;;17.52;48.44;101162.53;5015926;28;20053;-72
2022/07/18 05:17:37;;;;;;;2.13;1.10;;;;;;;17.56;48.37;101164.06;5008380;28;20187;-72
2022/07/18 05:20:05;;;;;;;2.53;1.15;;;;;;;17.70;48.26;101185.50;5016924;28;20499;-71
2022/07/18 05:22:33;;;;;;;3.92;1.30;;;;;;;17.77;47.60;101191.34;5016650;28;20093;-73
2022/07/18 05:25:00;;;;;;;3.72;1.70;;;;;;;17.73;48.07;101169.25;5015835;28;22202;-72
2022/07/18 05:27:27;;;;;;;3.20;1.45;;;;;;;17.85;48.09;101183.66;5010988;28;20061;-70
2022/07/18 05:29:54;;;;;;;3.65;1.50;;;;;;;17.93;48.22;101192.06;5009084;28;20136;-71
2022/07/18 05:32:20;;;;;;;4.78;1.80;;;;;;;18.02;47.47;101186.09;5009404;28;20518;-72
2022/07/18 05:34:47;;;;;;;2.88;1.20;;;;;;;18.08;47.90;101179.50;5007530;28;20046;-72
2022/07/18 05:37:14;;;;;;;8.75;1.30;;;;;;;18.15;47.41;101178.13;5014480;28;20108;-71
2022/07/18 05:39:41;;;;;;;5.70;1.40;;;;;;;18.31;47.19;101180.63;5020806;28;20052;-71
2022/07/18 05:42:07;;;;;;;3.22;1.45;;;;;;;18.43;47.10;101185.16;5016997;28;20074;-72
2022/07/18 05:44:34;;;;;;;3.53;1.33;;;;;;;18.46;46.28;101177.78;5011236;28;20496;-73
2022/07/18 05:47:01;;;;;;;4.78;1.27;;;;;;;18.60;46.26;101181.38;5011447;28;20108;-71
2022/07/18 05:49:27;;;;;;;6.47;1.50;;;;;;;18.67;46.13;101177.34;5015770;28;20052;-72
2022/07/18 05:51:54;;;;;;;26.83;2.92;;;;;;;18.81;46.49;101190.66;5018317;28;20495;-72
2022/07/18 05:54:21;;;;;;;4.07;1.33;;;;;;;18.86;44.90;101183.16;5021269;28;20042;-73
2022/07/18 05:56:52;;;;;;;5.35;1.65;;;;;;;19.01;44.94;101186.63;5010322;28;20080;-72
2022/07/18 05:59:20;;;;;;;4.22;1.45;;;;;;;19.17;44.19;101180.06;5007619;28;20231;-73
2022/07/18 06:01:48;;;;;;;4.93;1.45;;;;;;;19.36;44.12;101182.28;5015923;28;20195;-71
2022/07/18 06:04:15;;;;;;;4.45;1.65;;;;;;;19.42;43.95;101168.44;5015811;28;20668;-71
2022/07/18 06:06:43;;;;;;;6.18;1.50;;;;;;;19.60;42.59;101179.72;5012163;28;20049;-71
2022/07/18 06:09:10;;;;;;;7.97;1.70;;;;;;;19.72;43.72;101184.19;5013160;28;20556;-71
2022/07/18 06:11:37;;;;;;;4.72;1.80;;;;;;;19.72;43.84;101184.19;5012114;28;20154;-71
2022/07/18 06:14:03;;;;;;;8.45;1.50;;;;;;;19.67;43.53;101174.78;5012611;28;20057;-70
2022/07/18 06:16:31;;;;;;;4.43;1.40;;;;;;;19.78;42.86;101188.28;5011301;28;21560;-71
2022/07/18 06:18:59;;;;;;;5.95;1.55;;;;;;;19.90;41.50;101174.78;5012755;28;20076;-70
2022/07/18 06:21:26;;;;;;;4.85;1.48;;;;;;;20.11;41.69;101174.19;5012644;28;20103;-71
2022/07/18 06:23:53;;;;;;;3.70;1.40;;;;;;;20.50;39.49;101186.50;5014970;28;20057;-72
2022/07/18 06:26:20;;;;;;;4.85;1.00;;;;;;;20.75;39.50;101183.66;5015635;28;20065;-72
2022/07/18 06:28:47;;;;;;;2.92;1.27;;;;;;;21.22;39.44;101181.81;5015520;28;20045;-72
2022/07/18 06:31:17;;;;;;;3.78;1.13;;;;;;;21.70;39.13;101175.19;5019059;28;20073;-72
2022/07/18 06:33:43;;;;;;;5.50;1.40;;;;;;;22.28;36.62;101177.66;5011225;28;20123;-72
2022/07/18 06:36:11;;;;;;;3.55;1.20;;;;;;;22.74;35.46;101170.06;5012080;28;20135;-72
2022/07/18 06:38:39;;;;;;;5.55;1.50;;;;;;;23.03;34.75;101156.78;5008851;28;20053;-71
2022/07/18 06:41:07;;;;;;;3.42;1.35;;;;;;;23.65;34.31;101179.28;5009690;28;20156;-71
2022/07/18 06:43:37;;;;;;;3.55;1.20;;;;;;;24.06;33.52;101146.66;5016050;28;20049;-71
2022/07/18 06:46:04;;;;;;;3.13;1.13;;;;;;;24.62;31.94;101172.19;5012715;28;20081;-72
2022/07/18 06:48:33;;;;;;;4.15;1.00;;;;;;;24.81;32.08;101164.03;5009135;28;20402;-73
2022/07/18 06:51:04;;;;;;;4.57;1.25;;;;;;;24.97;31.15;101171.59;5014487;28;20488;-71
2022/07/18 06:53:32;;;;;;;2.47;1.05;;;;;;;25.18;30.71;101167.66;5008943;28;20184;-72
2022/07/18 06:55:59;;;;;;;2.85;1.35;;;;;;;25.39;29.75;101174.72;5012564;28;21339;-72
2022/07/18 06:58:26;;;;;;;5.18;1.08;;;;;;;25.55;29.42;101174.09;5015534;28;20045;-72
2022/07/18 07:00:52;;;;;;;1.98;1.30;;;;;;;25.77;29.34;101165.59;5013828;28;20414;-72
2022/07/18 07:03:19;;;;;;;4.60;1.17;;;;;;;25.69;28.39;101139.22;5014298;28;20046;-73
2022/07/18 07:05:46;;;;;;;3.65;1.23;;;;;;;25.77;28.64;101168.31;5013450;28;20525;-73
2022/07/18 07:08:13;;;;;;;3.25;1.05;;;;;;;25.77;29.98;101157.47;5011495;28;20137;-72
2022/07/18 07:10:40;;;;;;;5.68;1.70;;;;;;;25.56;29.09;101160.38;5026782;28;20562;-75
2022/07/18 07:13:07;;;;;;;5.40;1.30;;;;;;;25.69;30.33;101160.06;5027194;28;20099;-73
2022/07/18 07:15:40;;;;;;;5.75;1.33;;;;;;;26.04;28.31;101160.13;5020805;28;20378;-73
2022/07/18 07:18:07;;;;;;;2.15;1.00;;;;;;;25.78;28.92;101148.31;5023493;28;20461;-74
2022/07/18 07:20:33;;;;;;;6.25;1.35;;;;;;;25.93;29.39;101159.50;5024617;28;20065;-73
2022/07/18 07:23:04;;;;;;;4.38;1.50;;;;;;;26.05;29.07;101164.56;5021090;28;20080;-73
2022/07/18 07:25:31;;;;;;;23.95;2.22;;;;;;;26.39;28.15;101159.34;5027392;28;20052;-74
2022/07/18 07:27:58;;;;;;;3.83;1.15;;;;;;;26.76;27.06;101161.00;5029742;28;20049;-73
2022/07/18 07:30:25;;;;;;;7.07;1.70;;;;;;;26.92;26.36;101155.66;5034543;28;20064;-72
2022/07/18 07:32:51;;;;;;;3.70;1.05;;;;;;;26.98;27.93;101163.22;5028819;28;20733;-71
2022/07/18 07:35:19;;;;;;;1.67;1.00;;;;;;;27.18;26.31;101153.00;5025026;28;20042;-72
2022/07/18 07:37:58;;;;;;;4.65;1.10;;;;;;;27.22;25.83;101157.09;5028382;28;20095;-72
2022/07/18 07:40:27;;;;;;;6.55;1.17;;;;;;;27.26;26.47;101153.03;5027754;28;20068;-73
2022/07/18 07:43:11;;;;;;;3.25;1.17;;;;;;;27.41;25.68;101151.41;5025719;28;20053;-72
2022/07/18 07:45:38;;;;;;;2.25;0.80;;;;;;;27.56;24.86;101148.91;5022971;28;20367;-72
2022/07/18 07:48:05;;;;;;;3.35;1.20;;;;;;;27.81;26.07;101158.94;5028894;28;20085;-72
2022/07/18 07:50:33;;;;;;;4.38;1.30;;;;;;;27.91;24.63;101131.56;5027338;28;20054;-72
2022/07/18 07:53:00;;;;;;;3.10;1.10;;;;;;;28.45;24.38;101145.63;5028935;28;20211;-72
2022/07/18 07:55:28;;;;;;;3.70;1.20;;;;;;;28.75;24.77;101147.66;5030965;28;20041;-72
2022/07/18 07:57:55;;;;;;;3.47;1.20;;;;;;;28.96;24.17;101141.72;5028473;28;20068;-72
2022/07/18 08:00:21;;;;;;;4.70;1.15;;;;;;;29.06;23.54;101144.22;5024920;28;20068;-72
2022/07/18 08:02:53;;;;;;;3.85;1.15;;;;;;;29.06;23.55;101134.19;5030349;28;20052;-73
2022/07/18 08:05:27;;;;;;;2.78;1.35;;;;;;;29.17;23.58;101132.94;5056201;28;20049;-72
2022/07/18 08:07:54;;;;;;;4.22;1.20;;;;;;;29.16;23.25;101126.63;5023543;28;20053;-71
2022/07/18 08:10:21;;;;;;;4.82;1.42;;;;;;;29.15;23.25;101132.25;5023447;28;20045;-71
2022/07/18 08:12:48;;;;;;;3.90;1.38;;;;;;;29.07;23.54;101130.44;5026753;28;20042;-79
2022/07/18 08:15:15;;;;;;;2.67;1.23;;;;;;;29.14;23.32;101131.41;5018916;28;20064;-71
2022/07/18 08:17:41;;;;;;;2.50;1.25;;;;;;;29.01;23.29;101112.03;5024661;28;20180;-71
2022/07/18 08:20:13;;;;;;;3.75;1.10;;;;;;;29.11;23.09;101133.66;5038607;28;20065;-71
2022/07/18 08:22:56;;;;;;;5.97;1.27;;;;;;;29.18;22.77;101138.22;5032572;28;20049;-73
2022/07/18 08:25:24;;;;;;;3.78;1.10;;;;;;;29.22;22.79;101119.66;5019320;28;20566;-71
2022/07/18 08:27:51;;;;;;;4.95;1.25;;;;;;;29.36;22.93;101115.31;5022861;28;20506;-70
2022/07/18 08:30:22;;;;;;;3.85;1.08;;;;;;;29.55;23.87;101110.34;5022703;28;20133;-71
2022/07/18 08:32:54;;;;;;;3.72;1.20;;;;;;;29.77;23.13;101116.00;5024953;28;20100;-70
2022/07/18 08:35:23;;;;;;;5.32;1.45;;;;;;;29.83;22.84;101115.28;5030128;28;20041;-71
2022/07/18 08:38:14;;;;;;;3.83;1.52;;;;;;;29.80;22.74;101115.66;5025600;28;20261;-71
2022/07/18 08:40:52;;;;;;;3.63;1.10;;;;;;;29.47;23.09;101093.13;5022095;28;20053;-72
2022/07/18 08:43:26;;;;;;;5.68;1.45;;;;;;;29.39;23.07;101115.00;5026018;28;20065;-71
2022/07/18 08:46:04;;;;;;;6.53;1.33;;;;;;;29.17;23.14;101109.25;5028522;28;20065;-72
2022/07/18 08:48:31;;;;;;;2.30;1.05;;;;;;;28.82;23.27;101115.97;5015907;28;20111;-71
2022/07/18 08:51:00;;;;;;;4.95;1.60;;;;;;;28.56;23.44;101088.91;5015806;28;20426;-73
2022/07/18 08:53:28;;;;;;;4.63;1.15;;;;;;;28.76;23.53;101103.03;5021036;28;20591;-72
2022/07/18 08:55:55;;;;;;;5.00;1.20;;;;;;;28.92;23.53;101104.91;5030729;28;20049;-71
2022/07/18 08:58:22;;;;;;;5.13;1.30;;;;;;;28.97;23.54;101105.22;5031837;28;20436;-71
2022/07/18 09:01:09;;;;;;;3.63;1.20;;;;;;;29.10;23.16;101102.81;5022563;28;20068;-71
2022/07/18 09:03:36;;;;;;;3.67;1.45;;;;;;;29.12;22.73;101089.00;5031508;28;20048;-72
2022/07/18 09:06:12;;;;;;;3.55;1.13;;;;;;;29.27;22.50;101084.50;5024973;28;20053;-72
2022/07/18 09:08:56;;;;;;;5.38;1.30;;;;;;;29.41;22.46;101085.69;5023717;28;20666;-72
2022/07/18 09:11:22;;;;;;;5.50;1.33;;;;;;;29.49;22.81;101086.47;5027611;28;20673;-73
2022/07/18 09:14:34;;;;;;;5.03;1.60;;;;;;;29.41;22.96;101094.72;5044201;28;20119;-71
2022/07/18 09:17:15;;;;;;;7.10;1.48;;;;;;;29.01;23.54;101103.00;5034620;28;20045;-72
2022/07/18 09:20:14;;;;;;;5.45;1.40;;;;;;;28.96;23.02;101106.25;5032833;28;20054;-72
2022/07/18 09:22:43;;;;;;;2.30;1.30;;;;;;;28.96;23.00;101090.72;5027497;28;20107;-73
2022/07/18 09:25:13;;;;;;;2.85;1.17;;;;;;;28.95;22.95;101089.06;5025544;28;20075;-71
2022/07/18 09:27:40;;;;;;;;;;;;;;;28.93;23.57;101101.16;5027023;28;20512;-71
2022/07/18 09:30:17;;;;;;;2.95;1.20;;;;;;;28.87;23.64;101093.66;5033420;28;20023;-70
2022/07/18 09:32:51;;;;;;;4.22;1.33;;;;;;;28.88;23.54;101098.09;5028833;28;20076;-72
2022/07/18 09:35:27;;;;;;;4.68;1.77;;;;;;;28.93;23.55;101087.53;5033733;28;20088;-71
2022/07/18 09:38:10;;;;;;;4.28;1.17;;;;;;;28.77;23.87;101088.38;5059475;28;20046;-71
2022/07/18 09:40:43;;;;;;;6.03;1.58;;;;;;;28.69;24.68;101088.38;5034113;28;20468;-71
2022/07/18 09:43:17;;;;;;;3.47;1.25;;;;;;;28.86;23.91;101084.63;5027546;28;20498;-71
2022/07/18 09:45:47;;;;;;;3.88;1.10;;;;;;;28.76;22.60;101061.28;5033341;28;20065;-71
2022/07/18 09:48:19;;;;;;;1.92;1.10;;;;;;;28.82;23.13;101077.81;5038514;28;20122;-71
2022/07/18 09:50:59;;;;;;;3.42;1.25;;;;;;;28.91;22.79;101082.25;5030214;28;20060;-72
2022/07/18 09:53:27;;;;;;;2.80;1.30;;;;;;;29.04;22.29;101078.97;5028559;28;20053;-72
2022/07/18 09:56:11;;;;;;;2.35;1.25;;;;;;;29.05;21.93;101068.91;5025620;28;20108;-72
2022/07/18 09:58:40;;;;;;;4.57;1.30;;;;;;;29.18;21.61;101088.28;5036605;28;20053;-72
2022/07/18 10:01:09;;;;;;;3.20;1.13;;;;;;;29.07;21.90;101067.72;5031418;28;20080;-72
2022/07/18 10:03:36;;;;;;;4.63;1.25;;;;;;;29.05;22.19;101071.63;5033140;28;20046;-71
2022/07/18 10:06:04;;;;;;;2.47;1.35;;;;;;;28.96;22.46;101068.91;5030303;28;20155;-74
2022/07/18 10:08:37;;;;;;;3.38;0.93;;;;;;;29.11;22.26;101079.13;5029835;28;20123;-71
2022/07/18 10:11:09;;;;;;;4.35;1.48;;;;;;;29.25;22.02;101070.19;5029567;28;20184;-71
2022/07/18 10:13:37;;;;;;;6.32;1.38;;;;;;;29.37;20.57;101074.22;5030573;28;20057;-71
2022/07/18 10:16:05;;;;;;;3.63;1.60;;;;;;;29.31;21.18;101078.50;5031939;28;20045;-72
2022/07/18 10:18:34;;;;;;;2.63;1.10;;;;;;;29.36;21.33;101072.53;5033920;28;20049;-73
2022/07/18 10:21:05;;;;;;;4.45;1.10;;;;;;;29.43;21.67;101059.91;5032566;28;20045;-73
2022/07/18 10:23:38;;;;;;;2.08;1.10;;;;;;;29.62;21.88;101072.25;5033972;28;20045;-72
2022/07/18 10:26:14;;;;;;;2.17;0.90;;;;;;;29.56;21.05;101060.19;5030773;28;20045;-73
2022/07/18 10:28:55;;;;;;;3.67;1.40;;;;;;;29.44;21.05;101047.09;5029809;28;20107;-73
2022/07/18 10:31:30;;;;;;;3.97;1.10;;;;;;;29.60;21.36;101060.66;5032327;28;20140;-72
2022/07/18 10:34:07;;;;;;;2.65;1.17;;;;;;;29.72;20.63;101069.31;5033461;28;20496;-72
2022/07/18 10:36:34;;;;;;;3.60;1.10;;;;;;;29.80;20.99;101063.78;5030911;28;20053;-72
2022/07/18 10:39:08;;;;;;;3.22;1.30;;;;;;;29.75;20.52;101055.31;5030476;28;20041;-74
2022/07/18 10:41:41;;;;;;;2.47;1.35;;;;;;;29.76;20.54;101059.69;5030494;28;20058;-71
2022/07/18 10:44:29;;;;;;;1.10;0.98;;;;;;;29.78;20.73;101063.09;5029814;28;20136;-72
2022/07/18 10:47:23;;;;;;;8.20;1.77;;;;;;;29.88;20.33;101052.81;5030646;28;20041;-73
2022/07/18 10:49:56;;;;;;;3.80;0.90;;;;;;;29.93;21.05;101056.69;5029955;28;20064;-72
2022/07/18 10:52:23;;;;;;;5.28;1.40;;;;;;;29.92;20.80;101049.50;5048066;28;20127;-70
2022/07/18 10:55:18;;;;;;;1.58;1.00;;;;;;;29.89;20.95;101024.47;5032943;28;20049;-72
2022/07/18 10:57:52;;;;;;;2.80;1.33;;;;;;;30.19;20.64;101047.31;5029536;28;20120;-73
2022/07/18 11:00:32;;;;;;;3.03;1.35;;;;;;;30.37;20.95;101036.06;5027887;28;20049;-72
2022/07/18 11:03:09;;;;;;;;;;;;;;;30.47;20.48;101042.09;5030558;28;20046;-73
2022/07/18 11:05:43;;;;;;;3.28;1.73;;;;;;;30.51;20.15;101037.97;5032111;28;19983;-73
2022/07/18 11:08:13;;;;;;;2.22;1.10;;;;;;;30.61;20.35;101031.22;5025775;28;20061;-71
2022/07/18 11:10:46;;;;;;;3.13;1.20;;;;;;;30.83;20.40;101029.44;5024472;28;20057;-71
2022/07/18 11:13:28;;;;;;;4.05;1.10;;;;;;;30.96;20.07;101032.38;5030491;28;20057;-70
2022/07/18 11:16:06;;;;;;;2.58;1.30;;;;;;;31.07;20.25;101021.97;5027141;28;20053;-71
2022/07/18 11:18:39;;;;;;;2.42;1.10;;;;;;;31.14;19.21;101015.59;5022460;28;20073;-71
2022/07/18 11:21:22;;;;;;;4.28;1.60;;;;;;;31.13;19.75;101015.78;5028101;28;20045;-71
2022/07/18 11:23:52;;;;;;;4.32;1.30;;;;;;;30.96;19.07;101015.94;5020601;28;20060;-73
2022/07/18 11:26:21;;;;;;;2.28;1.27;;;;;;;30.67;19.61;100985.88;5019702;28;20072;-71
2022/07/18 11:28:58;;;;;;;3.22;1.08;;;;;;;30.55;19.65;100984.63;5021906;28;20056;-71
2022/07/18 11:31:25;;;;;;;2.60;1.00;;;;;;;30.82;19.78;101008.59;5020315;28;20054;-73
2022/07/18 11:33:53;;;;;;;2.58;1.40;;;;;;;31.05;20.03;101003.00;5023285;28;20118;-72
2022/07/18 11:36:27;;;;;;;2.70;1.30;;;;;;;31.05;19.48;101006.59;5018888;28;20089;-71